Time;durP1;ratioP1;P1;durP2;ratioP2;P2;SDS_P1;SDS_P2;PMS_P1;PMS_P2;Temp;Humidity;BMP_temperature;BMP_pressure;BME280_temperature;BME280_humidity;BME280_pressure;Samples;Min_cycle;Max_cycle;Signal;HPM_P1;HPM_P2
2022/08/03 00:00:53;;;;;;;2.58;2.45;;;;;;;32.55;27.20;98441.53;5065584;28;20040;-79
2022/08/03 00:03:20;;;;;;;2.20;2.10;;;;;;;32.39;26.98;98450.44;5066422;28;20056;-79
2022/08/03 00:05:46;;;;;;;2.03;1.92;;;;;;;32.13;27.50;98440.78;5063630;28;20162;-79
2022/08/03 00:08:12;;;;;;;2.72;2.53;;;;;;;32.30;27.29;98445.56;5062561;28;20067;-79
2022/08/03 00:10:38;;;;;;;2.72;2.53;;;;;;;32.48;27.00;98447.53;5061894;28;20566;-79
2022/08/03 00:13:04;;;;;;;2.75;2.55;;;;;;;32.54;27.23;98443.56;5062126;28;20029;-79
2022/08/03 00:15:30;;;;;;;2.75;2.55;;;;;;;32.59;26.82;98451.44;5060694;28;20063;-79
2022/08/03 00:17:56;;;;;;;2.58;2.38;;;;;;;32.48;26.95;98439.81;5061827;28;20183;-79
2022/08/03 00:20:23;;;;;;;2.38;2.20;;;;;;;32.31;27.63;98435.78;5062190;28;20031;-79
2022/08/03 00:22:49;;;;;;;2.38;2.17;;;;;;;32.52;27.39;98443.28;5062203;28;20040;-79
2022/08/03 00:25:16;;;;;;;12.95;2.60;;;;;;;32.51;26.54;98440.94;5066226;28;20029;-79
2022/08/03 00:27:42;;;;;;;1.92;1.80;;;;;;;32.26;26.83;98444.19;5063684;28;20626;-79
2022/08/03 00:30:09;;;;;;;1.80;1.70;;;;;;;32.13;27.43;98446.47;5063329;28;20041;-79
2022/08/03 00:32:35;;;;;;;2.25;2.05;;;;;;;32.22;27.01;98443.56;5062340;28;20485;-79
2022/08/03 00:35:01;;;;;;;2.15;2.00;;;;;;;32.37;27.41;98450.16;5063598;28;20032;-79
2022/08/03 00:37:27;;;;;;;2.42;2.22;;;;;;;32.41;26.79;98448.69;5064457;28;20039;-79
2022/08/03 00:39:53;;;;;;;2.42;2.25;;;;;;;32.38;27.22;98448.84;5064503;28;20167;-79
2022/08/03 00:42:19;;;;;;;2.58;2.38;;;;;;;32.29;26.96;98446.88;5064325;28;20064;-79
2022/08/03 00:44:45;;;;;;;3.30;3.05;;;;;;;31.96;27.68;98444.00;5058506;28;20025;-79
2022/08/03 00:47:12;;;;;;;3.17;2.80;;;;;;;31.65;28.07;98449.13;5063639;28;20048;-79
2022/08/03 00:49:39;;;;;;;2.72;2.50;;;;;;;31.63;28.28;98450.88;5063137;28;20037;-79
2022/08/03 00:52:07;;;;;;;2.75;2.55;;;;;;;31.85;27.86;98446.56;5062563;28;20029;-79
2022/08/03 00:54:34;;;;;;;2.67;2.40;;;;;;;32.04;27.53;98450.16;5061660;28;20116;-79
2022/08/03 00:57:01;;;;;;;3.17;2.90;;;;;;;32.17;27.51;98452.75;5060127;28;20075;-79
2022/08/03 00:59:28;;;;;;;3.03;2.83;;;;;;;32.20;27.67;98454.66;5066854;28;20029;-79
2022/08/03 01:01:54;;;;;;;2.33;2.13;;;;;;;32.23;26.94;98456.53;5065518;28;20033;-79
2022/08/03 01:04:21;;;;;;;2.50;2.30;;;;;;;32.44;26.79;98450.56;5051787;28;20028;-79
2022/08/03 01:07:10;;;;;;;2.80;2.60;;;;;;;32.52;26.87;98459.53;5067219;28;20025;-79
2022/08/03 01:09:42;;;;;;;2.72;2.40;;;;;;;32.47;26.65;98449.59;5064039;28;20095;-79
2022/08/03 01:12:35;;;;;;;3.33;3.03;;;;;;;32.52;27.28;98451.00;5069835;28;20102;-79
2022/08/03 01:15:14;;;;;;;2.78;2.58;;;;;;;32.80;26.46;98451.63;5071138;28;20036;-79
2022/08/03 01:18:10;;;;;;;4.50;2.47;;;;;;;32.98;25.91;98446.56;5073791;28;20180;-79
2022/08/03 01:20:42;;;;;;;2.20;2.10;;;;;;;32.81;26.13;98451.16;5071291;28;20094;-79
2022/08/03 01:23:36;;;;;;;1.95;1.85;;;;;;;32.42;26.24;98444.56;5071956;28;20754;-79
2022/08/03 01:26:21;;;;;;;2.40;2.20;;;;;;;32.02;26.95;98455.53;5070184;28;20025;-79
2022/08/03 01:29:08;;;;;;;2.10;2.00;;;;;;;31.93;27.16;98452.66;5064368;28;20051;-79
2022/08/03 01:31:57;;;;;;;2.25;2.05;;;;;;;32.00;27.12;98458.03;5066552;28;20115;-79
2022/08/03 01:34:29;;;;;;;3.38;2.22;;;;;;;32.10;26.87;98456.72;5063614;28;20076;-79
2022/08/03 01:36:58;;;;;;;2.60;2.40;;;;;;;32.14;26.94;98453.72;5067768;28;20029;-79
2022/08/03 01:39:27;;;;;;;2.95;2.22;;;;;;;32.26;26.76;98459.19;5075747;28;20381;-79
2022/08/03 01:41:58;;;;;;;2.45;2.15;;;;;;;32.26;26.59;98453.50;5066208;28;20071;-79
2022/08/03 01:44:30;;;;;;;2.78;2.58;;;;;;;32.36;26.93;98457.88;5068329;28;20103;-79
2022/08/03 01:47:01;;;;;;;2.60;2.40;;;;;;;32.23;26.85;98459.38;5068419;28;20725;-79
2022/08/03 01:49:30;;;;;;;2.53;2.33;;;;;;;32.27;26.49;98452.25;5075701;28;20115;-79
2022/08/03 01:51:57;;;;;;;2.28;2.08;;;;;;;32.32;26.56;98462.97;5071348;28;20036;-79
2022/08/03 01:54:24;;;;;;;2.45;2.25;;;;;;;32.36;26.07;98454.25;5070402;28;20127;-78
2022/08/03 01:56:53;;;;;;;2.05;1.95;;;;;;;32.34;25.94;98457.56;5067267;28;20434;-79
2022/08/03 01:59:20;;;;;;;3.03;2.83;;;;;;;32.11;26.65;98451.84;5070719;28;20063;-79
2022/08/03 02:01:48;;;;;;;2.10;2.00;;;;;;;32.08;26.61;98448.69;5067302;28;20085;-79
2022/08/03 02:04:17;;;;;;;2.30;2.10;;;;;;;32.17;26.60;98447.06;5068840;28;20035;-79
2022/08/03 02:06:46;;;;;;;2.28;2.17;;;;;;;32.09;26.31;98441.75;5069048;28;20036;-78
2022/08/03 02:09:14;;;;;;;2.75;2.55;;;;;;;32.19;26.53;98445.31;5070516;28;20046;-78
2022/08/03 02:11:42;;;;;;;2.30;2.10;;;;;;;32.19;26.62;98447.38;5066592;28;20518;-79
2022/08/03 02:14:09;;;;;;;2.42;2.17;;;;;;;32.28;26.37;98442.44;5068431;28;20459;-78
2022/08/03 02:16:36;;;;;;;2.55;2.35;;;;;;;32.50;25.98;98447.88;5053021;28;20119;-78
2022/08/03 02:19:06;;;;;;;3.25;2.45;;;;;;;32.49;25.55;98438.56;5069389;28;20106;-78
2022/08/03 02:21:35;;;;;;;2.00;1.90;;;;;;;32.24;25.64;98441.84;5063620;28;20709;-78
2022/08/03 02:24:03;;;;;;;2.22;2.13;;;;;;;32.01;25.93;98445.41;5069913;28;20098;-78
2022/08/03 02:26:30;;;;;;;1.60;1.50;;;;;;;31.82;25.85;98439.00;5075841;28;20036;-78
2022/08/03 02:29:01;;;;;;;2.85;2.22;;;;;;;31.90;25.83;98443.03;5069503;28;20880;-78
2022/08/03 02:31:31;;;;;;;2.20;2.00;;;;;;;31.79;25.77;98434.25;5066711;28;20033;-78
2022/08/03 02:34:02;;;;;;;2.60;2.40;;;;;;;31.64;26.22;98436.22;5068590;28;20077;-78
2022/08/03 02:36:30;;;;;;;2.75;2.35;;;;;;;31.73;26.62;98429.72;5053911;28;20485;-78
2022/08/03 02:38:59;;;;;;;2.00;1.90;;;;;;;31.85;26.23;98429.53;5066642;28;20090;-79
2022/08/03 02:41:36;;;;;;;1.63;1.52;;;;;;;32.02;26.17;98430.72;5069415;28;20033;-78
2022/08/03 02:44:08;;;;;;;1.98;1.80;;;;;;;32.20;25.88;98427.03;5067627;28;20075;-78
2022/08/03 02:46:38;;;;;;;2.05;1.95;;;;;;;32.24;25.33;98427.63;5070311;28;20596;-78
2022/08/03 02:49:05;;;;;;;1.53;1.40;;;;;;;31.94;26.17;98432.31;5070090;28;20124;-78
2022/08/03 02:51:35;;;;;;;2.13;2.03;;;;;;;31.74;26.53;98432.06;5071407;28;20119;-78
2022/08/03 02:54:03;;;;;;;2.00;1.90;;;;;;;31.78;26.33;98432.69;5067008;28;20058;-78
2022/08/03 02:56:29;;;;;;;1.67;1.58;;;;;;;31.94;25.85;98428.69;5070657;28;20041;-78
2022/08/03 02:58:57;;;;;;;2.47;2.35;;;;;;;32.02;26.25;98427.13;5068841;28;20028;-78
2022/08/03 03:01:25;;;;;;;2.08;1.88;;;;;;;32.02;26.25;98429.97;5057501;28;20029;-78
2022/08/03 03:03:55;;;;;;;2.05;1.95;;;;;;;32.04;25.69;98431.03;5065698;28;20378;-78
2022/08/03 03:06:23;;;;;;;2.47;2.03;;;;;;;32.19;25.78;98433.16;5069743;28;20549;-77
2022/08/03 03:08:50;;;;;;;2.45;2.25;;;;;;;32.26;25.72;98438.50;5068279;28;20682;-78
2022/08/03 03:11:19;;;;;;;2.55;2.35;;;;;;;32.16;25.75;98446.28;5067314;28;20405;-78
2022/08/03 03:13:47;;;;;;;1.92;1.83;;;;;;;32.18;25.45;98440.13;5066454;28;20063;-78
2022/08/03 03:16:15;;;;;;;2.38;2.17;;;;;;;32.27;25.15;98434.41;5071649;28;20435;-78
2022/08/03 03:18:44;;;;;;;2.55;2.35;;;;;;;32.33;24.83;98432.47;5055431;28;20127;-78
2022/08/03 03:21:11;;;;;;;3.58;2.65;;;;;;;32.09;25.49;98438.13;5072688;28;20250;-78
2022/08/03 03:23:40;;;;;;;2.38;2.17;;;;;;;31.74;26.17;98434.91;5067423;28;20031;-78
2022/08/03 03:26:07;;;;;;;2.95;2.75;;;;;;;31.64;25.92;98443.94;5066341;28;20460;-78
2022/08/03 03:28:35;;;;;;;3.13;2.83;;;;;;;31.49;26.46;98440.19;5068669;28;20055;-78
2022/08/03 03:31:06;;;;;;;2.50;2.30;;;;;;;31.38;26.88;98440.66;5073307;28;20042;-78
2022/08/03 03:33:34;;;;;;;2.25;2.15;;;;;;;31.71;26.55;98441.56;5065137;28;20077;-78
2022/08/03 03:36:01;;;;;;;2.55;2.35;;;;;;;32.00;26.01;98444.63;5065362;28;20035;-78
2022/08/03 03:38:27;;;;;;;2.55;2.35;;;;;;;32.23;25.70;98448.00;5066195;28;20081;-78
2022/08/03 03:40:54;;;;;;;2.65;2.45;;;;;;;32.45;25.46;98445.66;5065831;28;20040;-78
2022/08/03 03:43:22;;;;;;;2.30;2.13;;;;;;;32.65;25.21;98449.50;5069278;28;20029;-78
2022/08/03 03:45:50;;;;;;;2.35;2.15;;;;;;;32.32;25.39;98447.94;5068192;28;20028;-78
2022/08/03 03:48:17;;;;;;;2.00;1.90;;;;;;;32.00;25.86;98450.31;5067116;28;20036;-78
2022/08/03 03:50:44;;;;;;;2.35;2.15;;;;;;;32.13;25.54;98452.16;5066545;28;20393;-78
2022/08/03 03:53:11;;;;;;;1.92;1.83;;;;;;;32.25;25.88;98448.31;5064191;28;20058;-78
2022/08/03 03:55:39;;;;;;;2.85;1.90;;;;;;;31.93;25.94;98452.66;5067543;28;20412;-78
2022/08/03 03:58:05;;;;;;;2.05;1.95;;;;;;;31.53;26.30;98450.09;5066041;28;20103;-78
2022/08/03 04:00:32;;;;;;;1.70;1.60;;;;;;;31.40;26.60;98449.47;5063058;28;20033;-78
2022/08/03 04:02:58;;;;;;;2.58;2.38;;;;;;;31.55;26.67;98456.09;5073077;28;20040;-78
2022/08/03 04:11:20;;;;;;;2.00;1.90;;;;;;;32.72;26.13;98469.03;5064280;28;20642;-78
2022/08/03 04:14:21;;;;;;;2.35;2.25;;;;;;;33.01;26.01;98462.72;5068822;28;20036;-78
2022/08/03 04:17:11;;;;;;;2.72;2.42;;;;;;;33.27;26.00;98455.22;5026801;28;20614;-79
2022/08/03 04:19:47;;;;;;;2.60;2.40;;;;;;;33.13;25.55;98464.50;5060435;28;20068;-79
2022/08/03 04:22:21;;;;;;;2.63;2.42;;;;;;;32.79;26.14;98461.44;5064271;28;20056;-79
2022/08/03 04:25:01;;;;;;;2.45;2.25;;;;;;;32.34;26.97;98466.09;5061956;28;20037;-79
2022/08/03 04:27:33;;;;;;;2.75;2.55;;;;;;;32.07;27.43;98464.16;5058871;28;20040;-79
2022/08/03 04:30:03;;;;;;;2.30;2.20;;;;;;;32.12;27.92;98470.44;5060154;28;20040;-80
2022/08/03 04:32:30;;;;;;;2.65;2.45;;;;;;;32.42;27.93;98472.19;5063338;28;20029;-80
2022/08/03 04:34:56;;;;;;;3.35;3.15;;;;;;;32.70;27.84;98476.47;5056451;28;20037;-78
2022/08/03 04:37:42;;;;;;;2.90;2.70;;;;;;;32.74;27.96;98477.88;5066312;28;20077;-79
2022/08/03 04:40:18;;;;;;;4.82;2.70;;;;;;;32.71;28.08;98481.72;5068488;28;20029;-79
2022/08/03 04:42:45;;;;;;;3.13;2.92;;;;;;;32.75;27.95;98472.97;5067817;28;20020;-79
2022/08/03 04:45:13;;;;;;;3.05;2.83;;;;;;;32.62;28.16;98481.78;5067731;28;20106;-79
2022/08/03 04:47:40;;;;;;;2.70;2.53;;;;;;;32.54;28.49;98489.06;5072137;28;20035;-79
2022/08/03 04:50:07;;;;;;;2.58;2.47;;;;;;;32.67;28.58;98486.75;5067624;28;20531;-79
2022/08/03 04:52:35;;;;;;;2.95;2.75;;;;;;;32.85;28.55;98487.94;5074477;28;20025;-79
2022/08/03 04:55:01;;;;;;;3.70;3.50;;;;;;;33.15;28.96;98492.47;5055057;28;21829;-79
2022/08/03 04:57:27;;;;;;;2.72;2.53;;;;;;;33.57;29.12;98481.69;5073981;28;20544;-79
2022/08/03 04:59:55;;;;;;;3.30;3.10;;;;;;;33.88;29.04;98492.59;5074604;28;20040;-79
2022/08/03 05:02:21;;;;;;;3.40;3.10;;;;;;;33.93;29.13;98498.41;5072120;28;20575;-79
2022/08/03 05:04:48;;;;;;;3.45;3.22;;;;;;;33.91;29.20;98498.09;5072905;28;20439;-79
2022/08/03 05:07:16;;;;;;;3.63;3.42;;;;;;;34.22;29.16;98493.94;5073822;28;20504;-79
2022/08/03 05:09:43;;;;;;;3.13;2.92;;;;;;;34.59;29.38;98495.06;5064816;28;20041;-78
2022/08/03 05:12:09;;;;;;;3.63;3.33;;;;;;;34.71;29.68;98496.81;5071804;28;20082;-78
2022/08/03 05:14:37;;;;;;;3.80;3.13;;;;;;;34.95;29.37;98493.75;5073153;28;20040;-79
2022/08/03 05:17:07;;;;;;;3.72;3.53;;;;;;;35.13;29.36;98494.28;5074436;28;20032;-79
2022/08/03 05:19:34;;;;;;;3.20;3.00;;;;;;;35.18;29.28;98490.72;5072869;28;20055;-79
2022/08/03 05:22:00;;;;;;;3.00;2.80;;;;;;;35.00;29.33;98488.13;5072271;28;20064;-79
2022/08/03 05:24:26;;;;;;;3.25;2.95;;;;;;;35.71;28.85;98493.13;5072443;28;20512;-79
2022/08/03 05:26:53;;;;;;;2.80;2.60;;;;;;;35.74;28.64;98497.84;5054651;28;20037;-79
2022/08/03 05:29:19;;;;;;;3.13;2.88;;;;;;;35.74;28.89;98492.13;5072950;28;20123;-79
2022/08/03 05:31:45;;;;;;;3.20;3.00;;;;;;;35.55;29.56;98499.47;5074139;28;20033;-79
2022/08/03 05:34:11;;;;;;;3.60;3.15;;;;;;;35.81;29.65;98505.97;5071401;28;20531;-79
2022/08/03 05:36:37;;;;;;;2.88;2.67;;;;;;;36.24;29.07;98494.69;5072374;28;20100;-80
2022/08/03 05:39:03;;;;;;;2.58;2.42;;;;;;;36.80;28.43;98504.44;5070851;28;20036;-80
2022/08/03 05:41:29;;;;;;;2.53;2.35;;;;;;;37.11;27.91;98508.00;5071762;28;20032;-79
2022/08/03 05:43:55;;;;;;;2.85;2.65;;;;;;;37.33;27.32;98504.44;5072460;28;20107;-81
2022/08/03 05:46:22;;;;;;;2.58;2.47;;;;;;;37.39;27.50;98511.78;5073408;28;20044;-80
2022/08/03 05:48:48;;;;;;;2.30;2.17;;;;;;;37.39;26.79;98506.06;5056704;28;20041;-81
2022/08/03 05:51:15;;;;;;;2.42;2.22;;;;;;;37.43;27.39;98510.75;5075039;28;20040;-81
2022/08/03 05:53:42;;;;;;;2.05;1.95;;;;;;;37.54;27.59;98505.84;5067457;28;20028;-81
2022/08/03 05:56:08;;;;;;;2.13;2.03;;;;;;;37.65;27.44;98516.53;5073169;28;20037;-81
2022/08/03 05:58:35;;;;;;;2.58;2.38;;;;;;;37.77;26.65;98507.44;5065702;28;20037;-80
2022/08/03 06:01:01;;;;;;;2.22;2.13;;;;;;;37.86;26.15;98509.31;5074242;28;20037;-80
2022/08/03 06:03:27;;;;;;;2.33;2.22;;;;;;;37.79;26.21;98504.06;5070214;28;20044;-81
2022/08/03 06:05:57;;;;;;;2.60;2.50;;;;;;;37.68;25.97;98510.56;5073938;28;20057;-81
2022/08/03 06:08:23;;;;;;;2.33;2.22;;;;;;;37.57;26.15;98507.69;5075067;28;20040;-81
2022/08/03 06:10:50;;;;;;;4.32;2.80;;;;;;;37.54;26.14;98507.91;5074850;28;20443;-81
2022/08/03 06:13:16;;;;;;;3.20;3.00;;;;;;;37.62;26.45;98509.00;5074683;28;20112;-81
2022/08/03 06:15:42;;;;;;;2.45;2.33;;;;;;;37.65;25.86;98507.94;5074815;28;20036;-81
2022/08/03 06:18:08;;;;;;;3.03;2.83;;;;;;;37.72;25.47;98513.16;5073770;28;20492;-80
2022/08/03 06:20:34;;;;;;;2.78;2.58;;;;;;;37.78;26.12;98513.97;5075198;28;20035;-79
2022/08/03 06:23:01;;;;;;;2.92;2.72;;;;;;;37.88;25.39;98518.97;5077005;28;20074;-80
2022/08/03 06:25:28;;;;;;;2.70;2.50;;;;;;;37.80;25.30;98505.63;5086449;28;20028;-80
2022/08/03 06:27:54;;;;;;;3.53;3.22;;;;;;;37.62;25.64;98511.88;5072523;28;20040;-81
2022/08/03 06:30:20;;;;;;;3.80;2.95;;;;;;;37.80;25.67;98515.03;5075257;28;20484;-81
2022/08/03 06:32:46;;;;;;;2.65;2.45;;;;;;;37.95;25.89;98506.97;5068916;28;20524;-81
2022/08/03 06:35:12;;;;;;;3.25;3.05;;;;;;;38.27;25.90;98510.44;5071515;28;20361;-81
2022/08/03 06:37:46;;;;;;;5.00;2.50;;;;;;;38.58;26.14;98512.22;5066834;28;20028;-81
2022/08/03 06:40:17;;;;;;;2.50;2.30;;;;;;;38.80;24.72;98503.56;5074503;28;20029;-80
2022/08/03 06:42:44;;;;;;;2.80;2.55;;;;;;;38.82;24.97;98508.78;5072439;28;20113;-80
2022/08/03 06:45:11;;;;;;;2.70;2.50;;;;;;;38.75;24.41;98512.97;5073306;28;20035;-80
2022/08/03 06:47:38;;;;;;;2.83;2.63;;;;;;;38.51;23.58;98507.00;5071461;28;20036;-80
2022/08/03 06:50:05;;;;;;;3.53;2.95;;;;;;;38.45;24.82;98509.09;5071753;28;20561;-81
2022/08/03 06:52:32;;;;;;;2.33;2.15;;;;;;;38.57;25.71;98517.19;5073369;28;20036;-81
2022/08/03 06:54:58;;;;;;;3.17;2.88;;;;;;;38.74;24.18;98513.50;5072659;28;20037;-80
2022/08/03 06:57:25;;;;;;;2.80;2.60;;;;;;;38.56;25.02;98518.47;5073591;28;20111;-81
2022/08/03 06:59:51;;;;;;;2.65;2.50;;;;;;;38.33;25.48;98513.28;5071319;28;20086;-81
2022/08/03 07:02:20;;;;;;;2.80;2.60;;;;;;;38.31;25.96;98504.41;5074087;28;20032;-81
2022/08/03 07:04:47;;;;;;;2.72;2.55;;;;;;;38.57;26.15;98513.50;5071450;28;20507;-81
2022/08/03 07:07:14;;;;;;;2.85;2.65;;;;;;;38.89;25.86;98516.84;5073751;28;20087;-81
2022/08/03 07:09:40;;;;;;;2.67;2.58;;;;;;;39.18;24.87;98522.81;5072046;28;20037;-82
2022/08/03 07:12:06;;;;;;;2.97;2.78;;;;;;;39.15;25.46;98508.72;5069908;28;20472;-81
2022/08/03 07:14:32;;;;;;;2.72;2.58;;;;;;;38.94;25.77;98511.09;5071364;28;20059;-82
2022/08/03 07:16:59;;;;;;;2.55;2.45;;;;;;;39.04;25.39;98512.38;5071826;28;20063;-81
2022/08/03 07:19:25;;;;;;;2.50;2.40;;;;;;;38.64;24.83;98519.50;5072668;28;20048;-81
2022/08/03 07:21:51;;;;;;;2.90;2.70;;;;;;;38.24;25.04;98510.63;5073336;28;20507;-81
2022/08/03 07:24:17;;;;;;;2.42;2.22;;;;;;;38.10;26.72;98521.06;5045597;28;20507;-81
2022/08/03 07:26:43;;;;;;;2.60;2.50;;;;;;;38.36;26.06;98518.75;5055920;28;20490;-81
2022/08/03 07:29:09;;;;;;;3.10;2.90;;;;;;;37.94;25.52;98519.78;5070546;28;20396;-81
2022/08/03 07:31:35;;;;;;;2.78;2.58;;;;;;;38.06;25.37;98520.56;5071682;28;20045;-81
2022/08/03 07:34:01;;;;;;;3.38;3.17;;;;;;;38.20;25.14;98513.00;5053752;28;20032;-80
2022/08/03 07:36:27;;;;;;;3.78;3.47;;;;;;;37.60;26.89;98525.94;5072241;28;20063;-81
2022/08/03 07:38:53;;;;;;;3.15;2.95;;;;;;;37.92;26.38;98518.72;5073187;28;20111;-81
2022/08/03 07:41:19;;;;;;;3.83;3.53;;;;;;;38.03;26.95;98518.72;5072463;28;20033;-81
2022/08/03 07:43:45;;;;;;;3.38;3.17;;;;;;;38.27;25.43;98515.34;5052847;28;20229;-80
2022/08/03 07:46:12;;;;;;;3.90;3.20;;;;;;;37.98;26.75;98516.63;5061691;28;20039;-81
2022/08/03 07:48:38;;;;;;;3.80;3.50;;;;;;;37.89;26.79;98511.16;5073222;28;20499;-81
2022/08/03 07:51:04;;;;;;;3.75;3.55;;;;;;;38.41;27.00;98512.25;5072721;28;20070;-81
2022/08/03 07:53:30;;;;;;;3.42;3.22;;;;;;;38.99;25.51;98509.53;5072880;28;20039;-81
2022/08/03 07:55:56;;;;;;;3.40;3.20;;;;;;;38.94;26.27;98511.09;5072679;28;20040;-83
2022/08/03 07:58:23;;;;;;;4.57;4.28;;;;;;;38.49;24.75;98509.59;5072762;28;20111;-83
2022/08/03 08:00:51;;;;;;;4.50;4.20;;;;;;;38.72;25.33;98514.81;5066411;28;20025;-81
2022/08/03 08:03:17;;;;;;;4.22;3.92;;;;;;;39.17;25.58;98511.84;5086249;28;20111;-80
2022/08/03 08:05:44;;;;;;;3.97;3.78;;;;;;;39.55;26.04;98505.13;5072496;28;20039;-82
2022/08/03 08:08:10;;;;;;;3.92;3.63;;;;;;;39.90;25.41;98508.06;5071801;28;20488;-80
2022/08/03 08:10:36;;;;;;;3.80;3.50;;;;;;;39.98;24.65;98511.91;5070741;28;20032;-80
2022/08/03 08:13:04;;;;;;;3.83;3.63;;;;;;;39.87;24.73;98514.09;5072310;28;20032;-80
2022/08/03 08:15:30;;;;;;;3.72;3.53;;;;;;;39.63;25.65;98519.75;5071610;28;20097;-79
2022/08/03 08:17:59;;;;;;;3.80;3.50;;;;;;;39.85;25.38;98513.84;5072013;28;20086;-81
2022/08/03 08:20:29;;;;;;;4.05;3.75;;;;;;;39.36;25.91;98507.03;5065133;28;21001;-80
2022/08/03 08:22:57;;;;;;;6.40;5.90;;;;;;;38.11;28.08;98519.78;5066065;28;20036;-80
2022/08/03 08:25:24;;;;;;;5.90;5.40;;;;;;;36.42;29.96;98517.16;5054719;28;20056;-80
2022/08/03 08:27:51;;;;;;;6.88;6.35;;;;;;;36.04;31.77;98513.50;5069804;28;20049;-81
2022/08/03 08:30:19;;;;;;;5.15;4.80;;;;;;;37.28;27.58;98516.66;5071106;28;20048;-80
2022/08/03 08:32:46;;;;;;;5.80;5.40;;;;;;;37.59;26.93;98516.53;5062464;28;20058;-81
2022/08/03 08:35:12;;;;;;;5.18;4.78;;;;;;;38.16;25.01;98516.09;5055017;28;20373;-81
2022/08/03 08:37:39;;;;;;;4.93;4.53;;;;;;;38.14;27.77;98512.97;5072740;28;20025;-80
2022/08/03 08:40:07;;;;;;;5.60;5.15;;;;;;;37.08;29.01;98519.72;5072757;28;20037;-82
2022/08/03 08:42:36;;;;;;;5.10;4.70;;;;;;;38.26;26.19;98511.69;5072646;28;20513;-81
2022/08/03 08:45:05;;;;;;;4.40;4.03;;;;;;;39.12;25.29;98515.47;5072621;28;20062;-80
2022/08/03 08:47:32;;;;;;;4.30;3.90;;;;;;;39.28;24.21;98517.56;5072829;28;20029;-81
2022/08/03 08:50:00;;;;;;;4.65;4.35;;;;;;;38.90;23.63;98515.56;5048187;28;20044;-81
2022/08/03 08:52:32;;;;;;;4.60;4.30;;;;;;;38.48;25.18;98510.94;5054725;28;20029;-80
2022/08/03 08:55:02;;;;;;;4.07;3.85;;;;;;;37.95;26.89;98520.56;5067538;28;20029;-80
2022/08/03 08:57:32;;;;;;;4.90;4.13;;;;;;;38.18;25.50;98512.75;5068712;28;20045;-81
2022/08/03 09:00:00;;;;;;;4.53;4.23;;;;;;;38.18;24.63;98519.25;5053799;28;20029;-81
2022/08/03 09:02:29;;;;;;;4.40;4.10;;;;;;;38.26;24.93;98520.28;5068018;28;20044;-81
2022/08/03 09:04:56;;;;;;;4.87;4.57;;;;;;;38.13;25.89;98516.38;5068733;28;20060;-81
2022/08/03 09:07:23;;;;;;;4.57;4.18;;;;;;;38.65;25.92;98523.16;5072621;28;20024;-80
2022/08/03 09:09:49;;;;;;;4.43;4.13;;;;;;;39.07;25.19;98517.06;5053998;28;20317;-81
2022/08/03 09:12:15;;;;;;;4.43;4.10;;;;;;;39.45;24.20;98511.69;5068030;28;20112;-81
2022/08/03 09:14:41;;;;;;;4.57;4.28;;;;;;;38.96;24.87;98513.44;5070897;28;20455;-81
2022/08/03 09:17:08;;;;;;;4.95;4.60;;;;;;;38.92;25.30;98507.19;5054846;28;20396;-83
2022/08/03 09:19:35;;;;;;;5.97;5.47;;;;;;;36.33;31.61;98512.44;5068961;28;20083;-81
2022/08/03 09:22:16;;;;;;;5.25;4.85;;;;;;;36.05;28.40;98508.56;5071056;28;20035;-80
2022/08/03 09:24:55;;;;;;;6.30;5.80;;;;;;;35.44;28.88;98510.75;5067041;28;20060;-81
2022/08/03 09:27:22;;;;;;;5.82;5.30;;;;;;;35.22;30.80;98505.56;5066435;28;20488;-81
2022/08/03 09:29:50;;;;;;;5.95;5.45;;;;;;;35.16;31.84;98506.78;5073765;28;20048;-82
2022/08/03 09:32:20;;;;;;;5.53;5.13;;;;;;;35.48;28.88;98507.66;5074813;28;20086;-82
2022/08/03 09:34:48;;;;;;;5.40;4.95;;;;;;;35.79;30.72;98508.56;5070016;28;20028;-82
2022/08/03 09:37:16;;;;;;;5.18;4.78;;;;;;;35.39;31.22;98514.31;5074014;28;20033;-82
2022/08/03 09:39:44;;;;;;;4.88;4.53;;;;;;;36.20;28.82;98511.28;5074653;28;20495;-82
2022/08/03 09:42:18;;;;;;;5.00;4.50;;;;;;;37.44;26.94;98510.22;5074054;28;20493;-82
2022/08/03 09:44:49;;;;;;;4.30;4.00;;;;;;;36.90;26.33;98509.44;5073734;28;20037;-81
2022/08/03 09:47:27;;;;;;;3.25;3.05;;;;;;;36.62;29.46;98502.75;5073986;28;20067;-81
2022/08/03 09:50:02;;;;;;;3.80;3.60;;;;;;;37.09;27.66;98502.00;5075651;28;20488;-81
2022/08/03 09:52:36;;;;;;;3.72;3.42;;;;;;;38.20;25.80;98493.72;5068189;28;20037;-80
2022/08/03 09:55:08;;;;;;;3.53;3.33;;;;;;;38.23;27.70;98500.50;5071674;28;20036;-81
2022/08/03 09:57:34;;;;;;;3.30;3.10;;;;;;;38.65;24.77;98497.34;5071021;28;20032;-81
2022/08/03 10:00:15;;;;;;;3.00;2.80;;;;;;;39.18;26.02;98496.16;5053983;28;20049;-80
2022/08/03 10:02:42;;;;;;;2.70;2.60;;;;;;;39.39;25.23;98485.88;5071437;28;20113;-80
2022/08/03 10:05:10;;;;;;;2.53;2.42;;;;;;;38.22;28.08;98490.31;5069617;28;20068;-81
2022/08/03 10:07:48;;;;;;;2.72;2.53;;;;;;;38.76;25.97;98494.47;5071205;28;20555;-81
2022/08/03 10:10:16;;;;;;;2.72;2.60;;;;;;;39.34;24.48;98496.09;5067441;28;20041;-83
2022/08/03 10:12:43;;;;;;;2.40;2.30;;;;;;;39.96;23.95;98494.41;5067195;28;20111;-82
2022/08/03 10:15:10;;;;;;;2.70;2.50;;;;;;;39.36;26.40;98495.56;5069322;28;20036;-81
2022/08/03 10:17:37;;;;;;;1.90;1.80;;;;;;;39.64;26.39;98496.22;5069645;28;20070;-81
2022/08/03 10:20:06;;;;;;;2.15;2.05;;;;;;;40.08;23.60;98500.88;5071561;28;20135;-81
2022/08/03 10:22:34;;;;;;;4.45;4.05;;;;;;;37.81;29.30;98499.38;5074352;28;20041;-81
2022/08/03 10:25:11;;;;;;;5.03;4.60;;;;;;;36.46;29.49;98492.00;5067939;28;20103;-82
2022/08/03 10:27:40;;;;;;;3.58;3.38;;;;;;;37.65;26.56;98494.41;5067723;28;20060;-81
2022/08/03 10:30:09;;;;;;;4.23;3.93;;;;;;;36.75;27.58;98497.41;5066834;28;20074;-80
2022/08/03 10:32:41;;;;;;;4.80;4.45;;;;;;;36.18;29.35;98493.84;5067962;28;20020;-79
2022/08/03 10:35:13;;;;;;;5.28;4.78;;;;;;;36.20;27.88;98488.41;5068922;28;20024;-80
2022/08/03 10:37:48;;;;;;;5.18;4.82;;;;;;;37.77;26.33;98495.19;5067110;28;20082;-80
2022/08/03 10:40:18;;;;;;;4.03;3.72;;;;;;;39.20;23.49;98479.97;5067367;28;20111;-81
2022/08/03 10:42:45;;;;;;;4.15;3.90;;;;;;;39.86;23.74;98481.66;5086711;28;20115;-81
2022/08/03 10:45:21;;;;;;;4.20;3.90;;;;;;;38.60;25.50;98475.16;5070992;28;20064;-81
2022/08/03 10:47:48;;;;;;;5.05;4.65;;;;;;;37.44;25.99;98489.41;5046871;28;20032;-80
2022/08/03 10:50:16;;;;;;;5.53;5.05;;;;;;;36.63;30.78;98484.31;5061199;28;20040;-80
2022/08/03 10:53:08;;;;;;;4.35;4.05;;;;;;;35.81;25.26;98476.59;5067804;28;20031;-80
2022/08/03 10:58:53;;;;;;;4.25;3.95;;;;;;;39.33;24.80;98474.41;5065988;28;20055;-82
2022/08/03 11:01:50;;;;;;;4.07;3.78;;;;;;;37.77;22.81;98467.31;5067417;28;20102;-80
2022/08/03 11:04:18;;;;;;;4.18;3.88;;;;;;;37.90;26.61;98475.44;5066079;28;20021;-81
2022/08/03 11:06:45;;;;;;;4.20;3.90;;;;;;;39.00;23.25;98470.88;5064255;28;20025;-81
2022/08/03 11:09:17;;;;;;;3.30;3.10;;;;;;;38.75;27.74;98466.25;5067331;28;20041;-83
2022/08/03 11:11:45;;;;;;;3.40;3.20;;;;;;;38.49;26.53;98470.22;5052364;28;20033;-81
2022/08/03 11:14:17;;;;;;;3.28;3.08;;;;;;;38.18;27.66;98470.50;5062027;28;20040;-80
2022/08/03 11:16:51;;;;;;;3.20;3.00;;;;;;;38.11;26.24;98467.38;5070793;28;20111;-80
2022/08/03 11:19:22;;;;;;;2.90;2.70;;;;;;;38.18;28.53;98470.50;5061891;28;20484;-80
2022/08/03 11:21:49;;;;;;;3.00;2.80;;;;;;;38.51;27.55;98466.84;5069478;28;20036;-80
2022/08/03 11:24:40;;;;;;;4.63;2.65;;;;;;;38.71;24.61;98466.53;5066784;28;20029;-81
2022/08/03 11:27:16;;;;;;;3.05;2.85;;;;;;;38.52;25.43;98469.16;5068152;28;20025;-80
2022/08/03 11:30:07;;;;;;;2.70;2.60;;;;;;;37.91;24.06;98460.59;5068704;28;20041;-81
2022/08/03 11:32:39;;;;;;;3.13;2.80;;;;;;;37.19;24.99;98460.41;5067487;28;20038;-81
2022/08/03 11:35:08;;;;;;;3.13;2.92;;;;;;;36.63;29.74;98458.56;5065150;28;20063;-81
2022/08/03 11:37:55;;;;;;;2.70;2.50;;;;;;;38.31;24.96;98456.41;5068768;28;20056;-80
2022/08/03 11:40:44;;;;;;;3.08;2.97;;;;;;;39.21;21.94;98455.66;5065520;28;20606;-81
2022/08/03 11:43:22;;;;;;;2.80;2.60;;;;;;;40.00;23.48;98448.09;5062573;28;20039;-81
2022/08/03 11:46:02;;;;;;;2.78;2.65;;;;;;;39.19;20.90;98446.78;5066899;28;20512;-81
2022/08/03 11:48:34;;;;;;;2.65;2.55;;;;;;;39.10;23.53;98444.19;5065913;28;20370;-81
2022/08/03 11:51:01;;;;;;;2.60;2.40;;;;;;;40.14;23.85;98446.19;5069240;28;20041;-81
2022/08/03 11:53:28;;;;;;;2.45;2.30;;;;;;;41.11;22.34;98446.97;5062847;28;20107;-81